This is the latest recevied weather packets stored in our database for station/object XW7RMR. If no packets are shown the sender has not sent any weather packets the latest 10 day(s).
| Time | Temp. | Humidity | Pressure | Rain* | Wind** | Luminosity | Snow |
|---|---|---|---|---|---|---|---|
| 1777824469 | 20° C | 71% | 1010.3 hPa | 0 mm | - | 381 W/m² | - |
| 1777824165 | 18.89° C | 74% | 1010.4 hPa | 0 mm | - | 366 W/m² | - |
| 1777823861 | 18.33° C | 74% | 1010.3 hPa | 0 mm | - | 343 W/m² | - |
| 1777823559 | 18.89° C | 73% | 1010.3 hPa | 0 mm | - | 319 W/m² | - |
| 1777823256 | 18.33° C | 73% | 1010.4 hPa | 0 mm | - | 317 W/m² | - |
| 1777822953 | 17.78° C | 77% | 1010.5 hPa | 0 mm | - | 298 W/m² | - |
| 1777822651 | 17.22° C | 77% | 1010.4 hPa | 0 mm | - | 261 W/m² | - |
| 1777822349 | 16.67° C | 81% | 1010.5 hPa | 0 mm | - | 214 W/m² | - |
| 1777822046 | 16.11° C | 82% | 1010.6 hPa | 0 mm | - | 184 W/m² | - |
| 1777821744 | 16.11° C | 82% | 1010.7 hPa | 0 mm | - | 146 W/m² | - |
| 1777821441 | 15.56° C | 83% | 1010.6 hPa | 0 mm | - | 149 W/m² | - |
| 1777821138 | 15.56° C | 83% | 1010.7 hPa | 0 mm | - | 135 W/m² | - |
| 1777820835 | 14.44° C | 86% | 1010.6 hPa | 0 mm | - | 124 W/m² | - |
| 1777820531 | 13.89° C | 89% | 1010.7 hPa | 0 mm | - | 114 W/m² | - |
| 1777820228 | 13.33° C | 90% | 1010.6 hPa | 0 mm | - | 98 W/m² | - |
| 1777819925 | 13.33° C | 89% | 1010.6 hPa | 0 mm | - | 99 W/m² | - |
| 1777819623 | 13.33° C | 89% | 1010.7 hPa | 0 mm | - | 91 W/m² | - |
| 1777819320 | 12.78° C | 92% | 1010.7 hPa | 0 mm | - | 85 W/m² | - |
| 1777819016 | 12.78° C | 92% | 1010.5 hPa | 0 mm | - | 79 W/m² | - |
| 1777818714 | 12.22° C | 94% | 1010.7 hPa | 0 mm | - | 74 W/m² | - |
| 1777818410 | 12.22° C | 93% | 1010.7 hPa | 0 mm | - | 68 W/m² | - |
| 1777818107 | 12.22° C | 93% | 1010.6 hPa | 0 mm | - | 64 W/m² | - |
| 1777817804 | 12.78° C | 91% | 1010.6 hPa | 0 mm | - | 59 W/m² | - |
| 1777817502 | 12.78° C | 93% | 1010.5 hPa | 0 mm | - | 55 W/m² | - |
| 1777817197 | 12.22° C | 94% | 1010.4 hPa | 0 mm | - | 50 W/m² | - |
* Rain latest hour (hover to see other rain measurements)
** Current wind speed in m/s (hover to see current wind gust speed)